Time;durP1;ratioP1;P1;durP2;ratioP2;P2;SDS_P1;SDS_P2;PMS_P1;PMS_P2;Temp;Humidity;BMP_temperature;BMP_pressure;BME280_temperature;BME280_humidity;BME280_pressure;Samples;Min_cycle;Max_cycle;Signal;HPM_P1;HPM_P2
2023/06/21 00:00:15;;;;;;;;;;;;;;;16.70;100.00;95446.22;5114696;28;1914;-55
2023/06/21 00:02:44;;;;;;;;;;;;;;;16.83;100.00;95443.69;5112609;28;2447;-55
2023/06/21 00:05:11;;;;;;;;;;;;;;;16.83;100.00;95440.97;5114620;28;1116;-55
2023/06/21 00:07:41;;;;;;;;;;;;;;;16.96;100.00;95451.09;5114705;28;1057;-55
2023/06/21 00:10:07;;;;;;;;;;;;;;;17.05;100.00;95451.75;5114749;28;1061;-55
2023/06/21 00:12:34;;;;;;;;;;;;;;;16.93;100.00;95449.59;5114653;28;1024;-55
2023/06/21 00:15:00;;;;;;;;;;;;;;;16.82;100.00;95449.25;5114572;28;1041;-55
2023/06/21 00:17:26;;;;;;;;;;;;;;;16.68;100.00;95454.50;5114444;28;1435;-55
2023/06/21 00:19:54;;;;;;;;;;;;;;;16.57;100.00;95449.59;5113228;28;2469;-55
2023/06/21 00:22:23;;;;;;;;;;;;;;;16.72;100.00;95444.97;5094060;28;2891;-55
2023/06/21 00:24:50;;;;;;;;;;;;;;;16.80;100.00;95446.72;5094264;28;967;-55
2023/06/21 00:27:16;;;;;;;;;;;;;;;16.71;100.00;95448.72;5094057;28;980;-54
2023/06/21 00:29:43;;;;;;;;;;;;;;;16.57;100.00;95445.03;5094031;28;1068;-55
2023/06/21 00:32:09;;;;;;;;;;;;;;;16.43;100.00;95445.94;5094238;28;1030;-55
2023/06/21 00:34:35;;;;;;;;;;;;;;;16.39;100.00;95441.94;5093752;28;1659;-55
2023/06/21 00:37:03;;;;;;;;;;;;;;;16.42;100.00;95438.84;5098404;28;1123;-55
2023/06/21 00:39:30;;;;;;;;;;;;;;;16.50;100.00;95444.13;5114031;28;1909;-55
2023/06/21 00:41:56;;;;;;;;;;;;;;;16.37;100.00;95444.81;5114116;28;1056;-55
2023/06/21 00:44:22;;;;;;;;;;;;;;;16.24;100.00;95443.81;5114013;28;1139;-54
2023/06/21 00:46:51;;;;;;;;;;;;;;;16.24;100.00;95443.81;5114113;28;1032;-55
2023/06/21 00:49:17;;;;;;;;;;;;;;;16.33;100.00;95450.78;5113036;28;1047;-55
2023/06/21 00:51:44;;;;;;;;;;;;;;;16.35;100.00;95449.59;5114324;28;971;-55
2023/06/21 00:54:16;;;;;;;;;;;;;;;16.42;100.00;95446.94;5114079;28;1035;-55
2023/06/21 00:56:42;;;;;;;;;;;;;;;16.46;100.00;95452.81;5114033;28;1044;-55
2023/06/21 00:59:09;;;;;;;;;;;;;;;16.47;100.00;95449.91;5114111;28;1905;-55
2023/06/21 01:01:36;;;;;;;;;;;;;;;16.54;100.00;95450.84;5113854;28;1051;-55
2023/06/21 01:04:03;;;;;;;;;;;;;;;16.26;100.00;95453.41;5113884;28;1035;-55
2023/06/21 01:06:37;;;;;;;;;;;;;;;16.30;100.00;95454.69;5114059;28;1030;-55
2023/06/21 01:09:13;;;;;;;;;;;;;;;16.24;100.00;95454.59;5113908;28;1023;-55
2023/06/21 01:11:42;;;;;;;;;;;;;;;16.08;100.00;95459.19;5113770;28;1044;-55
2023/06/21 01:14:17;;;;;;;;;;;;;;;16.15;100.00;95453.91;5114041;28;1271;-55
2023/06/21 01:16:45;;;;;;;;;;;;;;;16.19;100.00;95461.41;5113891;28;1455;-55
2023/06/21 01:19:28;;;;;;;;;;;;;;;16.14;100.00;95463.84;5113047;28;1902;-55
2023/06/21 01:21:57;;;;;;;;;;;;;;;16.18;100.00;95457.06;5110986;28;2914;-55
2023/06/21 01:24:25;;;;;;;;;;;;;;;16.27;100.00;95454.25;5113661;28;968;-55
2023/06/21 01:27:03;;;;;;;;;;;;;;;16.37;99.63;95452.94;5112491;28;965;-55
2023/06/21 01:29:31;;;;;;;;;;;;;;;16.31;98.75;95455.53;5113798;28;972;-55
2023/06/21 01:31:57;;;;;;;;;;;;;;;16.12;99.88;95452.38;5113789;28;1058;-55
2023/06/21 01:34:24;;;;;;;;;;;;;;;15.92;100.00;95448.63;5113592;28;1031;-55
2023/06/21 01:36:50;;;;;;;;;;;;;;;15.73;100.00;95455.38;5113577;28;1066;-55
2023/06/21 01:39:17;;;;;;;;;;;;;;;15.62;100.00;95449.41;5113344;28;1987;-55
2023/06/21 01:41:43;;;;;;;;;;;;;;;15.81;100.00;95447.22;5113736;28;1027;-55
2023/06/21 01:44:09;;;;;;;;;;;;;;;15.94;100.00;95451.97;5113664;28;953;-55
2023/06/21 01:46:37;;;;;;;;;;;;;;;16.06;100.00;95444.22;5113410;28;1093;-55
2023/06/21 01:49:04;;;;;;;;;;;;;;;16.07;100.00;95453.97;5113455;28;1067;-55
2023/06/21 01:51:30;;;;;;;;;;;;;;;16.06;100.00;95458.53;5113243;28;991;-55
2023/06/21 01:53:57;;;;;;;;;;;;;;;16.05;100.00;95454.19;5112289;28;2950;-55
2023/06/21 01:56:23;;;;;;;;;;;;;;;15.99;100.00;95460.31;5112302;28;2930;-55
2023/06/21 01:58:49;;;;;;;;;;;;;;;15.99;100.00;95458.47;5113484;28;1993;-55
2023/06/21 02:01:18;;;;;;;;;;;;;;;15.96;100.00;95455.31;5113555;28;952;-55
2023/06/21 02:03:48;;;;;;;;;;;;;;;15.96;100.00;95456.13;5113565;28;973;-55
2023/06/21 02:06:16;;;;;;;;;;;;;;;16.00;100.00;95456.59;5113489;28;1214;-55
2023/06/21 02:08:43;;;;;;;;;;;;;;;16.07;100.00;95460.22;5113392;28;1043;-54
2023/06/21 02:11:09;;;;;;;;;;;;;;;16.02;100.00;95459.13;5113240;28;897;-55
2023/06/21 02:13:35;;;;;;;;;;;;;;;15.92;100.00;95462.09;5113349;28;1070;-55
2023/06/21 02:16:02;;;;;;;;;;;;;;;15.79;100.00;95463.56;5113753;28;973;-55
2023/06/21 02:18:28;;;;;;;;;;;;;;;15.60;100.00;95469.50;5116323;28;1906;-55
2023/06/21 02:20:57;;;;;;;;;;;;;;;15.55;100.00;95469.19;5116755;28;1044;-55
2023/06/21 02:23:23;;;;;;;;;;;;;;;15.77;100.00;95471.03;5109373;28;2921;-55
2023/06/21 02:25:49;;;;;;;;;;;;;;;15.93;100.00;95467.28;5096354;28;1075;-55
2023/06/21 02:28:16;;;;;;;;;;;;;;;15.84;100.00;95465.75;5096591;28;1040;-55
2023/06/21 02:30:42;;;;;;;;;;;;;;;15.86;100.00;95473.59;5096365;28;1059;-55
2023/06/21 02:33:08;;;;;;;;;;;;;;;15.85;100.00;95471.94;5096372;28;977;-55
2023/06/21 02:35:34;;;;;;;;;;;;;;;15.75;100.00;95469.53;5096183;28;1024;-55
2023/06/21 02:38:02;;;;;;;;;;;;;;;15.55;100.00;95475.41;5096328;28;1063;-55
2023/06/21 02:40:28;;;;;;;;;;;;;;;15.55;100.00;95471.91;5096214;28;2007;-55
2023/06/21 02:42:54;;;;;;;;;;;;;;;15.68;100.00;95480.19;5096028;28;1041;-55
2023/06/21 02:45:20;;;;;;;;;;;;;;;15.86;100.00;95484.41;5096028;28;1048;-55
2023/06/21 02:47:46;;;;;;;;;;;;;;;15.89;100.00;95484.88;5096060;28;1064;-55
2023/06/21 02:50:14;;;;;;;;;;;;;;;15.95;99.68;95477.88;5096051;28;1116;-55
2023/06/21 02:52:40;;;;;;;;;;;;;;;15.81;100.00;95476.88;5095692;28;1132;-55
2023/06/21 02:55:07;;;;;;;;;;;;;;;15.72;100.00;95476.09;5096107;28;1035;-55
2023/06/21 02:57:33;;;;;;;;;;;;;;;15.64;100.00;95488.84;5096034;28;980;-54
2023/06/21 02:59:59;;;;;;;;;;;;;;;15.61;100.00;95492.72;5095927;28;1914;-55
2023/06/21 03:02:33;;;;;;;;;;;;;;;15.59;100.00;95497.44;5095728;28;1000;-55
2023/06/21 03:05:01;;;;;;;;;;;;;;;15.46;100.00;95495.41;5095701;28;964;-55
2023/06/21 03:07:27;;;;;;;;;;;;;;;15.32;100.00;95488.94;5095664;28;1056;-54
2023/06/21 03:09:54;;;;;;;;;;;;;;;15.28;100.00;95494.91;5096969;28;2805;-54
2023/06/21 03:12:20;;;;;;;;;;;;;;;15.38;100.00;95498.16;5098868;28;2851;-54
2023/06/21 03:14:46;;;;;;;;;;;;;;;15.40;100.00;95494.28;5095523;28;955;-54
2023/06/21 03:17:12;;;;;;;;;;;;;;;15.49;100.00;95503.09;5100402;28;1420;-54
2023/06/21 03:19:38;;;;;;;;;;;;;;;15.23;100.00;95498.97;5115272;28;1905;-54
2023/06/21 03:22:04;;;;;;;;;;;;;;;15.23;100.00;95500.81;5115977;28;1055;-54
2023/06/21 03:24:32;;;;;;;;;;;;;;;15.57;100.00;95503.03;5115515;28;1096;-54
2023/06/21 03:26:58;;;;;;;;;;;;;;;15.49;100.00;95504.97;5115644;28;1046;-54
2023/06/21 03:40:36;;;;;;;;;;;;;;;15.96;100.00;95514.63;5131879;27;1215;-54
2023/06/21 03:43:02;;;;;;;;;;;;;;;15.95;100.00;95513.81;5131581;27;1142;-54
2023/06/21 03:45:29;;;;;;;;;;;;;;;16.12;100.00;95519.00;5131669;27;1583;-54
2023/06/21 03:47:54;;;;;;;;;;;;;;;16.24;100.00;95519.34;5131221;28;1905;-54
2023/06/21 03:50:21;;;;;;;;;;;;;;;16.40;100.00;95519.16;5131347;27;1095;-53
2023/06/21 03:52:47;;;;;;;;;;;;;;;16.57;100.00;95515.22;5131588;27;1006;-53
2023/06/21 03:55:13;;;;;;;;;;;;;;;16.77;100.00;95520.84;5131567;27;1034;-54
2023/06/21 03:57:39;;;;;;;;;;;;;;;16.82;98.81;95520.31;5131378;27;1860;-54
2023/06/21 04:00:14;;;;;;;;;;;;;;;16.92;99.00;95518.16;5131218;27;1150;-54
2023/06/21 04:02:40;;;;;;;;;;;;;;;16.98;100.00;95525.47;5131452;27;1727;-55
2023/06/21 04:05:09;;;;;;;;;;;;;;;17.16;99.77;95527.72;5131263;27;1248;-53
2023/06/21 04:07:36;;;;;;;;;;;;;;;17.28;98.56;95538.03;5131374;27;1269;-53
2023/06/21 04:10:02;;;;;;;;;;;;;;;17.44;97.85;95547.75;5131050;27;1905;-53
2023/06/21 04:12:29;;;;;;;;;;;;;;;17.56;95.89;95543.47;5130920;27;1047;-54
2023/06/21 04:14:57;;;;;;;;;;;;;;;17.66;92.93;95551.25;5131115;27;964;-54
2023/06/21 04:17:23;;;;;;;;;;;;;;;17.69;92.75;95554.41;5130767;27;1111;-54
2023/06/21 04:19:49;;;;;;;;;;;;;;;17.78;94.16;95555.09;5131129;27;1007;-53
2023/06/21 04:22:15;;;;;;;;;;;;;;;17.62;95.10;95545.38;5130988;27;1000;-53
2023/06/21 04:24:41;;;;;;;;;;;;;;;17.61;94.17;95553.72;5130924;27;988;-53
2023/06/21 04:27:07;;;;;;;;;;;;;;;17.69;94.46;95551.69;5130732;27;968;-53
2023/06/21 04:29:40;;;;;;;;;;;;;;;17.82;92.04;95550.97;5130488;27;1984;-54
2023/06/21 04:32:07;;;;;;;;;;;;;;;18.03;91.01;95555.53;5129827;27;2450;-53
2023/06/21 04:34:33;;;;;;;;;;;;;;;18.25;89.74;95567.13;5110575;27;2836;-53
2023/06/21 04:37:05;;;;;;;;;;;;;;;18.40;89.28;95567.00;5113389;28;1345;-53
2023/06/21 04:39:31;;;;;;;;;;;;;;;18.63;88.01;95571.25;5125635;28;1215;-54
2023/06/21 04:41:58;;;;;;;;;;;;;;;18.49;87.39;95575.78;5116322;28;1007;-54
2023/06/21 04:44:27;;;;;;;;;;;;;;;18.49;86.56;95563.06;5116715;28;987;-54
2023/06/21 04:46:54;;;;;;;;;;;;;;;18.50;88.38;95570.16;5116458;28;1096;-54
2023/06/21 04:49:20;;;;;;;;;;;;;;;18.69;88.70;95570.47;5116625;28;2057;-54
2023/06/21 04:51:46;;;;;;;;;;;;;;;18.76;86.98;95574.03;5116735;28;972;-54
2023/06/21 04:54:12;;;;;;;;;;;;;;;18.78;86.30;95571.97;5116351;28;1302;-53
2023/06/21 04:56:38;;;;;;;;;;;;;;;18.99;84.55;95567.47;5116622;28;1060;-54
2023/06/21 04:59:04;;;;;;;;;;;;;;;19.22;85.39;95575.28;5116604;28;1035;-54
2023/06/21 05:01:31;;;;;;;;;;;;;;;19.38;84.79;95574.06;5116310;28;1016;-54
2023/06/21 05:03:57;;;;;;;;;;;;;;;19.28;83.06;95575.28;5116392;28;1028;-54
2023/06/21 05:06:24;;;;;;;;;;;;;;;19.44;85.72;95573.22;5116443;28;1043;-54
2023/06/21 05:08:51;;;;;;;;;;;;;;;19.63;81.80;95572.41;5116312;28;1906;-54
2023/06/21 05:11:20;;;;;;;;;;;;;;;19.79;83.27;95575.81;5116074;27;1048;-54
2023/06/21 05:13:46;;;;;;;;;;;;;;;20.00;82.03;95567.44;5116300;28;1038;-54
2023/06/21 05:16:12;;;;;;;;;;;;;;;19.92;83.15;95570.38;5116056;28;1022;-54
2023/06/21 05:18:38;;;;;;;;;;;;;;;20.04;81.14;95565.97;5116225;28;1318;-54
2023/06/21 05:21:05;;;;;;;;;;;;;;;20.12;82.16;95573.06;5116359;28;1007;-54
2023/06/21 05:23:31;;;;;;;;;;;;;;;20.17;81.69;95567.03;5115837;28;1055;-54
2023/06/21 05:25:57;;;;;;;;;;;;;;;20.15;79.16;95574.56;5115860;27;1880;-54
2023/06/21 05:28:23;;;;;;;;;;;;;;;20.33;81.30;95566.56;5115740;28;1990;-54
2023/06/21 05:30:49;;;;;;;;;;;;;;;20.25;81.66;95570.34;5115871;28;1034;-54
2023/06/21 05:33:15;;;;;;;;;;;;;;;20.33;82.12;95561.13;5115813;28;975;-54
2023/06/21 05:35:41;;;;;;;;;;;;;;;20.47;80.51;95568.22;5115694;28;1032;-54
2023/06/21 05:38:08;;;;;;;;;;;;;;;20.66;79.25;95579.28;5115441;28;1677;-54
2023/06/21 05:40:34;;;;;;;;;;;;;;;20.63;80.24;95585.13;5115418;28;1143;-54
2023/06/21 05:43:05;;;;;;;;;;;;;;;20.91;78.58;95579.38;5115727;28;1042;-54
2023/06/21 05:45:31;;;;;;;;;;;;;;;21.06;80.56;95576.41;5113741;28;2546;-54
2023/06/21 05:47:58;;;;;;;;;;;;;;;21.22;78.24;95564.19;5115314;28;1906;-54
2023/06/21 05:50:24;;;;;;;;;;;;;;;21.33;77.98;95570.81;5113289;28;2549;-54
2023/06/21 05:52:50;;;;;;;;;;;;;;;21.57;77.98;95566.50;5114259;28;1052;-54
2023/06/21 05:55:16;;;;;;;;;;;;;;;21.60;77.22;95555.19;5114021;28;1063;-54
2023/06/21 05:57:43;;;;;;;;;;;;;;;21.43;78.08;95554.84;5115571;28;1206;-54
2023/06/21 06:00:09;;;;;;;;;;;;;;;21.49;78.36;95553.16;5115115;28;1112;-54
2023/06/21 06:02:35;;;;;;;;;;;;;;;21.48;80.01;95562.41;5115220;27;1026;-54
2023/06/21 06:05:01;;;;;;;;;;;;;;;21.50;78.87;95557.56;5115252;28;1043;-54
2023/06/21 06:07:27;;;;;;;;;;;;;;;21.62;78.66;95548.47;5114943;28;972;-54
2023/06/21 06:09:54;;;;;;;;;;;;;;;21.70;77.76;95547.34;5114909;28;1906;-55
2023/06/21 06:12:21;;;;;;;;;;;;;;;21.80;76.57;95545.00;5113883;28;1062;-54
2023/06/21 06:27:09;;;;;;;;;;;;;;;22.54;73.01;95549.78;5069614;28;1376;-54
2023/06/21 06:29:36;;;;;;;;;;;;;;;22.56;75.20;95548.47;5070578;28;985;-55
2023/06/21 06:32:02;;;;;;;;;;;;;;;22.85;76.29;95545.22;5070095;28;1334;-54
2023/06/21 06:34:28;;;;;;;;;;;;;;;22.89;76.06;95540.97;5070260;28;1910;-54
2023/06/21 06:36:54;;;;;;;;;;;;;;;22.91;71.67;95536.13;5070184;28;1071;-55
2023/06/21 06:39:20;;;;;;;;;;;;;;;22.99;72.81;95538.53;5070399;28;1068;-55
2023/06/21 06:41:46;;;;;;;;;;;;;;;22.79;72.10;95534.16;5070208;28;1063;-55
2023/06/21 06:44:12;;;;;;;;;;;;;;;22.74;72.90;95528.56;5070238;28;1016;-55
2023/06/21 06:46:39;;;;;;;;;;;;;;;22.75;75.31;95527.50;5068975;28;993;-54
2023/06/21 06:49:05;;;;;;;;;;;;;;;22.80;72.96;95519.50;5070199;28;1385;-55
2023/06/21 06:51:31;;;;;;;;;;;;;;;23.07;73.25;95523.78;5069821;28;1312;-55
2023/06/21 06:53:57;;;;;;;;;;;;;;;23.31;71.38;95517.34;5068553;28;985;-55
2023/06/21 06:56:23;;;;;;;;;;;;;;;23.25;70.92;95522.91;5069884;28;1988;-55
2023/06/21 06:58:49;;;;;;;;;;;;;;;23.42;70.34;95512.19;5069711;28;1069;-55
2023/06/21 07:01:15;;;;;;;;;;;;;;;23.80;70.02;95516.44;5069754;28;1020;-55
2023/06/21 07:03:41;;;;;;;;;;;;;;;23.89;69.67;95513.13;5069661;28;909;-55
2023/06/21 07:06:08;;;;;;;;;;;;;;;23.96;69.79;95519.31;5068356;28;1044;-56
2023/06/21 07:08:34;;;;;;;;;;;;;;;23.95;69.55;95527.72;5069515;28;1016;-55
2023/06/21 07:11:00;;;;;;;;;;;;;;;24.05;69.71;95511.56;5069445;28;1107;-55
2023/06/21 07:13:26;;;;;;;;;;;;;;;24.26;70.19;95512.06;5069328;28;1037;-55
2023/06/21 07:15:52;;;;;;;;;;;;;;;24.28;68.92;95507.19;5069468;28;1985;-55
2023/06/21 07:18:18;;;;;;;;;;;;;;;24.07;66.57;95505.88;5069205;28;1140;-55
2023/06/21 07:20:44;;;;;;;;;;;;;;;23.81;66.93;95512.63;5069162;28;1073;-54
2023/06/21 07:23:11;;;;;;;;;;;;;;;23.96;68.09;95505.66;5069177;28;1464;-54
2023/06/21 07:25:37;;;;;;;;;;;;;;;24.26;68.91;95501.94;5069001;28;1249;-54
2023/06/21 07:28:03;;;;;;;;;;;;;;;24.44;69.46;95511.13;5056785;28;993;-54
2023/06/21 07:30:29;;;;;;;;;;;;;;;24.52;66.04;95514.31;5054627;28;973;-54
2023/06/21 07:32:55;;;;;;;;;;;;;;;24.72;68.63;95513.94;5055991;28;1008;-54
2023/06/21 07:35:22;;;;;;;;;;;;;;;24.79;65.67;95508.31;5055566;28;1910;-54
2023/06/21 07:37:48;;;;;;;;;;;;;;;24.87;68.92;95515.31;5055593;28;1037;-54
2023/06/21 07:40:14;;;;;;;;;;;;;;;25.08;67.21;95508.34;5055652;28;922;-54
2023/06/21 07:42:40;;;;;;;;;;;;;;;25.01;65.39;95508.50;5055949;28;984;-54
2023/06/21 07:45:07;;;;;;;;;;;;;;;25.13;68.93;95502.97;5055558;28;1056;-54
2023/06/21 07:47:33;;;;;;;;;;;;;;;25.27;64.23;95504.38;5055766;28;973;-54
2023/06/21 07:50:00;;;;;;;;;;;;;;;25.25;65.67;95500.22;5055744;28;1001;-54
2023/06/21 07:52:26;;;;;;;;;;;;;;;25.30;62.63;95492.13;5054299;28;1066;-54
2023/06/21 07:54:52;;;;;;;;;;;;;;;25.51;64.41;95491.41;5054324;28;1975;-54
2023/06/21 07:57:18;;;;;;;;;;;;;;;25.71;65.05;95490.09;5055271;28;1061;-54
2023/06/21 07:59:45;;;;;;;;;;;;;;;25.86;64.68;95484.06;5054123;28;2292;-54
2023/06/21 08:02:17;;;;;;;;;;;;;;;25.91;62.55;95484.13;5054540;28;2930;-54
2023/06/21 08:04:43;;;;;;;;;;;;;;;25.86;63.97;95493.09;5055299;28;1092;-54
2023/06/21 08:07:09;;;;;;;;;;;;;;;25.97;63.76;95494.13;5054336;28;973;-54
2023/06/21 08:09:35;;;;;;;;;;;;;;;26.17;66.07;95496.34;5055169;28;1033;-54
2023/06/21 08:12:02;;;;;;;;;;;;;;;26.35;65.31;95499.88;5055439;28;969;-54
2023/06/21 08:14:28;;;;;;;;;;;;;;;26.26;61.60;95491.28;5054866;28;1909;-54
2023/06/21 08:16:54;;;;;;;;;;;;;;;26.06;62.32;95491.78;5055021;28;1872;-54
2023/06/21 08:19:20;;;;;;;;;;;;;;;26.40;59.86;95489.81;5054984;28;1888;-54
2023/06/21 08:21:46;;;;;;;;;;;;;;;26.44;60.19;95492.88;5054911;28;945;-54
2023/06/21 08:24:12;;;;;;;;;;;;;;;26.43;61.53;95491.25;5054873;28;1393;-54
2023/06/21 08:26:38;;;;;;;;;;;;;;;26.52;58.13;95484.22;5054705;28;1256;-54
2023/06/21 08:29:04;;;;;;;;;;;;;;;26.47;58.70;95493.22;5055124;28;968;-55
2023/06/21 08:31:31;;;;;;;;;;;;;;;26.78;59.64;95487.31;5054837;28;1097;-54
2023/06/21 08:33:57;;;;;;;;;;;;;;;26.93;59.99;95482.03;5053689;28;2847;-54
2023/06/21 08:36:24;;;;;;;;;;;;;;;26.91;58.27;95481.47;5034723;28;2941;-54
2023/06/21 08:38:50;;;;;;;;;;;;;;;26.90;61.81;95482.56;5032789;28;1577;-55
2023/06/21 08:41:16;;;;;;;;;;;;;;;26.78;59.89;95479.09;5033721;28;998;-55
2023/06/21 08:43:42;;;;;;;;;;;;;;;27.01;62.02;95478.81;5033351;28;1041;-55
2023/06/21 08:46:09;;;;;;;;;;;;;;;27.19;61.45;95477.66;5034835;28;977;-55
2023/06/21 08:48:35;;;;;;;;;;;;;;;27.37;60.21;95471.00;5034746;28;1017;-54
2023/06/21 08:51:03;;;;;;;;;;;;;;;27.40;57.00;95475.97;5034407;28;1100;-54
2023/06/21 08:53:39;;;;;;;;;;;;;;;27.35;57.73;95475.94;5034448;28;1031;-54
2023/06/21 08:56:05;;;;;;;;;;;;;;;27.31;57.30;95469.31;5034596;28;1984;-55
2023/06/21 08:58:35;;;;;;;;;;;;;;;27.57;59.80;95470.38;5034477;28;1035;-55
2023/06/21 09:01:03;;;;;;;;;;;;;;;27.64;57.81;95465.50;5034685;28;1052;-55
2023/06/21 09:03:32;;;;;;;;;;;;;;;27.69;58.46;95470.19;5043287;28;2523;-55
2023/06/21 09:06:03;;;;;;;;;;;;;;;27.80;59.15;95458.22;5034149;28;1041;-55
2023/06/21 09:08:31;;;;;;;;;;;;;;;27.81;58.66;95461.78;5034354;28;1004;-55
2023/06/21 09:10:57;;;;;;;;;;;;;;;27.94;60.06;95455.88;5034051;28;1862;-55
2023/06/21 09:13:27;;;;;;;;;;;;;;;28.02;57.69;95458.16;5034144;28;1032;-55
2023/06/21 09:15:57;;;;;;;;;;;;;;;28.04;57.84;95458.72;5034177;28;2003;-55
2023/06/21 09:18:24;;;;;;;;;;;;;;;28.04;58.05;95450.47;5033781;28;1053;-55
2023/06/21 09:20:50;;;;;;;;;;;;;;;27.98;55.40;95461.66;5034051;28;1017;-55
2023/06/21 09:23:17;;;;;;;;;;;;;;;28.07;55.14;95449.09;5035243;28;1402;-55
2023/06/21 09:25:48;;;;;;;;;;;;;;;28.10;54.23;95448.56;5052275;28;2150;-55
2023/06/21 09:28:14;;;;;;;;;;;;;;;28.27;52.91;95447.56;5036836;28;2890;-56
2023/06/21 09:30:41;;;;;;;;;;;;;;;28.56;55.39;95440.63;5033888;28;1060;-55
2023/06/21 09:33:07;;;;;;;;;;;;;;;28.77;50.14;95444.28;5033821;28;1025;-55
2023/06/21 09:35:34;;;;;;;;;;;;;;;28.84;49.30;95445.94;5033775;28;1997;-55
2023/06/21 09:38:00;;;;;;;;;;;;;;;28.99;49.42;95440.50;5033542;28;916;-55
2023/06/21 09:40:26;;;;;;;;;;;;;;;29.08;52.88;95435.28;5032233;28;1132;-55
2023/06/21 09:42:53;;;;;;;;;;;;;;;29.09;52.00;95435.03;5032413;28;1123;-55
2023/06/21 09:45:19;;;;;;;;;;;;;;;28.97;51.00;95437.22;5033527;28;1028;-55
2023/06/21 09:47:46;;;;;;;;;;;;;;;28.90;48.43;95433.88;5033444;28;1852;-55
2023/06/21 09:50:12;;;;;;;;;;;;;;;28.97;51.91;95428.94;5031979;28;1061;-55
2023/06/21 09:52:45;;;;;;;;;;;;;;;28.92;49.94;95437.19;5033596;28;1008;-55
2023/06/21 09:55:15;;;;;;;;;;;;;;;28.76;47.89;95444.53;5037991;28;2897;-56
2023/06/21 09:57:41;;;;;;;;;;;;;;;28.75;49.52;95442.91;5036820;28;2819;-56
2023/06/21 10:00:07;;;;;;;;;;;;;;;28.87;48.02;95434.41;5033556;28;989;-55
2023/06/21 10:02:40;;;;;;;;;;;;;;;28.95;43.09;95454.00;5033310;28;961;-55
2023/06/21 10:05:24;;;;;;;;;;;;;;;29.09;42.40;95442.47;5045487;28;2455;-56
2023/06/21 10:07:50;;;;;;;;;;;;;;;29.16;40.14;95459.59;5053451;28;1064;-55
2023/06/21 10:10:18;;;;;;;;;;;;;;;29.15;43.40;95444.16;5052947;28;1053;-55
2023/06/21 10:12:53;;;;;;;;;;;;;;;29.06;47.86;95435.56;5053044;28;1108;-56
2023/06/21 10:15:19;;;;;;;;;;;;;;;29.13;48.69;95441.66;5053137;28;1993;-55
2023/06/21 10:17:46;;;;;;;;;;;;;;;29.07;47.66;95444.66;5052911;28;941;-55
2023/06/21 10:20:15;;;;;;;;;;;;;;;29.10;47.58;95449.59;5052936;28;1061;-56
2023/06/21 10:22:51;;;;;;;;;;;;;;;29.09;49.10;95448.78;5052958;28;1004;-55
2023/06/21 10:25:20;;;;;;;;;;;;;;;29.26;50.72;95437.56;5046124;28;2724;-54
2023/06/21 10:27:49;;;;;;;;;;;;;;;29.17;50.38;95439.19;5052861;28;1001;-54
2023/06/21 10:30:19;;;;;;;;;;;;;;;29.37;50.52;95442.00;5052904;28;2029;-55
2023/06/21 10:32:47;;;;;;;;;;;;;;;29.39;46.82;95437.03;5053329;28;981;-55
2023/06/21 10:35:16;;;;;;;;;;;;;;;29.35;46.48;95440.63;5053011;28;1910;-56
2023/06/21 10:38:01;;;;;;;;;;;;;;;29.36;50.41;95434.00;5052687;28;1045;-55
2023/06/21 10:40:28;;;;;;;;;;;;;;;29.24;45.93;95438.97;5052174;28;2548;-55
2023/06/21 10:42:56;;;;;;;;;;;;;;;29.22;49.80;95435.66;5040760;28;2846;-55
2023/06/21 10:45:22;;;;;;;;;;;;;;;29.11;51.03;95430.06;5033207;28;1012;-55
2023/06/21 10:47:49;;;;;;;;;;;;;;;29.21;46.19;95432.03;5033069;28;973;-56
2023/06/21 10:50:17;;;;;;;;;;;;;;;29.15;46.71;95436.72;5037158;28;2474;-56
2023/06/21 10:52:43;;;;;;;;;;;;;;;29.15;48.60;95425.72;5052811;28;1100;-57
2023/06/21 10:55:13;;;;;;;;;;;;;;;29.41;49.29;95422.19;5050537;28;2518;-54
2023/06/21 10:57:39;;;;;;;;;;;;;;;29.36;45.05;95431.25;5051784;28;2236;-54
2023/06/21 11:00:09;;;;;;;;;;;;;;;29.36;48.46;95420.25;5040058;28;2937;-54
2023/06/21 11:02:35;;;;;;;;;;;;;;;29.53;51.59;95414.47;5033916;28;1064;-55
2023/06/21 11:05:20;;;;;;;;;;;;;;;29.51;50.70;95412.00;5036590;28;1029;-55
2023/06/21 11:07:55;;;;;;;;;;;;;;;29.59;50.78;95413.38;5036626;28;1013;-55
2023/06/21 11:10:41;;;;;;;;;;;;;;;29.64;52.53;95413.38;5036590;28;1049;-55
2023/06/21 11:13:08;;;;;;;;;;;;;;;29.66;49.22;95413.91;5035275;28;1042;-57
2023/06/21 11:15:37;;;;;;;;;;;;;;;29.59;48.51;95414.22;5036302;28;1987;-56
2023/06/21 11:18:07;;;;;;;;;;;;;;;29.41;49.73;95414.75;5036317;28;1042;-57
2023/06/21 11:20:56;;;;;;;;;;;;;;;29.51;50.51;95405.66;5035090;28;977;-56
2023/06/21 11:23:23;;;;;;;;;;;;;;;29.61;49.67;95408.41;5038447;28;1723;-56
2023/06/21 11:26:12;;;;;;;;;;;;;;;29.73;49.97;95406.25;5055954;28;1367;-55
2023/06/21 11:28:42;;;;;;;;;;;;;;;29.70;48.23;95411.44;5048051;28;1126;-57
2023/06/21 11:31:11;;;;;;;;;;;;;;;29.72;49.56;95403.72;5056033;28;1033;-55
2023/06/21 11:33:46;;;;;;;;;;;;;;;29.68;46.80;95410.91;5056094;28;1020;-56
2023/06/21 11:36:13;;;;;;;;;;;;;;;29.83;47.24;95408.16;5055808;28;1909;-55
2023/06/21 11:38:47;;;;;;;;;;;;;;;29.73;46.75;95409.00;5055854;28;1542;-56
2023/06/21 11:41:32;;;;;;;;;;;;;;;29.81;49.12;95404.03;5055690;28;1080;-56
2023/06/21 11:43:58;;;;;;;;;;;;;;;29.77;48.95;95398.25;5056055;28;1024;-56
2023/06/21 11:46:27;;;;;;;;;;;;;;;29.56;46.46;95403.72;5054588;28;950;-55
2023/06/21 11:49:00;;;;;;;;;;;;;;;29.58;45.26;95398.78;5054757;28;1659;-54
2023/06/21 11:51:29;;;;;;;;;;;;;;;29.76;51.45;95389.13;5055595;28;1036;-54
2023/06/21 11:53:55;;;;;;;;;;;;;;;29.92;48.19;95394.66;5055872;28;1040;-56
2023/06/21 11:56:22;;;;;;;;;;;;;;;29.92;46.50;95392.72;5054528;28;1914;-54
2023/06/21 11:58:49;;;;;;;;;;;;;;;29.90;48.41;95385.81;5055622;28;1024;-55
2023/06/21 12:01:16;;;;;;;;;;;;;;;29.75;47.91;95386.69;5055523;28;1074;-55
2023/06/21 12:03:42;;;;;;;;;;;;;;;29.71;48.37;95383.63;5036269;28;2609;-55
2023/06/21 12:06:08;;;;;;;;;;;;;;;29.75;49.36;95384.75;5039689;28;2943;-56
2023/06/21 12:08:35;;;;;;;;;;;;;;;29.85;48.55;95389.41;5034768;28;2957;-57
2023/06/21 12:11:02;;;;;;;;;;;;;;;30.02;50.29;95391.88;5043222;28;2909;-57
2023/06/21 12:13:29;;;;;;;;;;;;;;;30.01;47.93;95387.44;5039437;28;2616;-56
2023/06/21 12:15:59;;;;;;;;;;;;;;;29.96;48.57;95385.53;5034858;28;1914;-55
2023/06/21 12:18:26;;;;;;;;;;;;;;;30.00;48.89;95385.00;5035075;28;1463;-55
2023/06/21 12:20:56;;;;;;;;;;;;;;;29.98;48.16;95390.78;5034725;28;2924;-55
2023/06/21 12:23:22;;;;;;;;;;;;;;;29.95;49.73;95388.56;5042823;28;2206;-56
2023/06/21 12:25:49;;;;;;;;;;;;;;;29.95;49.80;95385.81;5048362;28;2910;-55
2023/06/21 12:28:17;;;;;;;;;;;;;;;30.02;49.07;95386.38;5054433;28;2785;-56
2023/06/21 12:30:46;;;;;;;;;;;;;;;30.12;47.89;95389.09;5034600;28;2879;-56
2023/06/21 12:33:12;;;;;;;;;;;;;;;30.09;47.61;95381.38;5035987;28;2996;-56
2023/06/21 12:35:39;;;;;;;;;;;;;;;30.14;48.22;95384.13;5038227;28;2891;-56
2023/06/21 12:38:14;;;;;;;;;;;;;;;30.33;48.11;95384.38;5034853;28;1104;-58
2023/06/21 12:40:53;;;;;;;;;;;;;;;30.29;49.34;95386.00;5034515;28;1045;-57
2023/06/21 12:43:35;;;;;;;;;;;;;;;30.28;44.83;95391.78;5046097;28;2887;-57
2023/06/21 12:46:02;;;;;;;;;;;;;;;30.13;47.40;95376.16;5052568;28;3005;-58
2023/06/21 12:48:28;;;;;;;;;;;;;;;30.13;48.83;95378.91;5054793;28;1072;-57
2023/06/21 12:50:55;;;;;;;;;;;;;;;29.94;45.72;95379.50;5054573;28;1104;-57
2023/06/21 12:53:40;;;;;;;;;;;;;;;29.97;48.68;95376.19;5053328;28;2237;-55
2023/06/21 12:56:08;;;;;;;;;;;;;;;30.02;47.09;95374.50;5040583;28;3002;-56
2023/06/21 12:58:34;;;;;;;;;;;;;;;30.08;46.80;95376.16;5053131;28;2859;-56
2023/06/21 13:01:01;;;;;;;;;;;;;;;30.09;48.32;95386.91;5039541;28;2858;-56
2023/06/21 13:03:29;;;;;;;;;;;;;;;29.91;47.10;95371.75;5034295;28;1058;-56
2023/06/21 13:05:55;;;;;;;;;;;;;;;29.88;46.57;95377.84;5034333;28;1042;-55
2023/06/21 13:08:23;;;;;;;;;;;;;;;30.02;47.14;95372.56;5039063;28;3006;-56
2023/06/21 13:10:56;;;;;;;;;;;;;;;30.03;46.96;95368.72;5033864;28;2958;-56
2023/06/21 13:13:23;;;;;;;;;;;;;;;29.96;44.52;95374.50;5041562;28;2867;-56
2023/06/21 13:15:50;;;;;;;;;;;;;;;29.91;45.31;95377.28;5051770;28;2906;-55
2023/06/21 13:18:19;;;;;;;;;;;;;;;30.01;44.59;95370.91;5051853;28;2502;-56
2023/06/21 13:20:45;;;;;;;;;;;;;;;30.12;46.66;95377.25;5039101;28;2898;-55